Time;durP1;ratioP1;P1;durP2;ratioP2;P2;SDS_P1;SDS_P2;PMS_P1;PMS_P2;Temp;Humidity;BMP_temperature;BMP_pressure;BME280_temperature;BME280_humidity;BME280_pressure;Samples;Min_cycle;Max_cycle;Signal;HPM_P1;HPM_P2
2022/08/21 00:00:38;;;;;;;9.15;5.62;;;;;;;20.71;100.00;97741.55;1680550;81;28130;-86
2022/08/21 00:03:08;;;;;;;12.43;5.60;;;;;;;20.75;100.00;97734.34;1697267;82;28162;-89
2022/08/21 00:05:39;;;;;;;8.35;5.30;;;;;;;20.76;100.00;97743.14;1652229;84;28008;-88
2022/08/21 00:08:06;;;;;;;5.62;4.15;;;;;;;20.84;100.00;97743.01;1667848;83;28103;-88
2022/08/21 00:10:32;;;;;;;9.13;5.20;;;;;;;20.93;100.00;97738.41;1658495;84;28117;-88
2022/08/21 00:13:00;;;;;;;8.33;5.47;;;;;;;20.97;100.00;97739.17;1674194;84;28044;-88
2022/08/21 00:15:29;;;;;;;9.95;6.33;;;;;;;20.97;100.00;97739.67;1654998;84;28148;-88
2022/08/21 00:17:56;;;;;;;7.17;5.25;;;;;;;20.93;100.00;97741.90;1700230;81;28112;-88
2022/08/21 00:20:23;;;;;;;7.83;5.28;;;;;;;20.91;100.00;97740.42;1697035;81;28166;-88
2022/08/21 00:22:50;;;;;;;9.20;5.70;;;;;;;20.87;100.00;97731.50;1713463;82;28080;-88
2022/08/21 00:25:17;;;;;;;5.92;4.92;;;;;;;20.95;100.00;97733.20;1713734;81;28093;-88
2022/08/21 00:27:46;;;;;;;6.90;5.42;;;;;;;21.02;100.00;97728.78;1690276;82;28278;-88
2022/08/21 00:30:15;;;;;;;11.15;6.45;;;;;;;21.09;100.00;97731.00;1705950;81;28081;-88
2022/08/21 00:32:42;;;;;;;10.05;6.25;;;;;;;21.15;100.00;97728.13;1689263;81;28114;-88
2022/08/21 00:35:12;;;;;;;10.60;6.45;;;;;;;21.14;100.00;97723.30;1699035;81;28094;-88
2022/08/21 00:37:40;;;;;;;8.65;6.40;;;;;;;21.14;100.00;97719.78;1679991;82;28135;-88
2022/08/21 00:40:09;;;;;;;7.78;6.03;;;;;;;21.09;100.00;97715.04;1675024;82;28100;-89
2022/08/21 00:42:36;;;;;;;7.47;6.05;;;;;;;21.08;100.00;97709.90;1704495;81;28112;-89
2022/08/21 00:45:08;;;;;;;9.93;6.28;;;;;;;21.10;100.00;97697.23;1688693;81;28125;-88
2022/08/21 00:47:32;;;;;;;9.23;6.40;;;;;;;21.12;100.00;97699.19;1698201;82;28104;-88
2022/08/21 00:49:58;;;;;;;9.73;6.85;;;;;;;21.12;100.00;97693.86;1701733;82;27997;-88
2022/08/21 00:52:28;;;;;;;9.33;6.58;;;;;;;21.12;100.00;97689.37;1711095;82;28162;-87
2022/08/21 00:54:57;;;;;;;10.35;7.33;;;;;;;21.08;100.00;97684.12;1705569;81;28033;-89
2022/08/21 00:57:27;;;;;;;11.05;6.92;;;;;;;21.06;100.00;97682.14;1708471;81;28123;-87
2022/08/21 00:59:57;;;;;;;10.20;6.25;;;;;;;21.08;100.00;97677.47;1696370;82;28102;-88
2022/08/21 01:02:23;;;;;;;11.95;7.58;;;;;;;21.07;100.00;97677.14;1683638;82;28134;-87
2022/08/21 01:04:50;;;;;;;11.20;7.00;;;;;;;21.07;100.00;97681.64;1714982;81;28231;-87
2022/08/21 01:07:17;;;;;;;13.10;9.15;;;;;;;21.07;100.00;97686.45;1707548;81;28015;-89
2022/08/21 01:09:45;;;;;;;11.48;6.97;;;;;;;21.05;100.00;97681.86;1716674;81;28098;-88
2022/08/21 01:12:12;;;;;;;12.18;8.18;;;;;;;21.07;100.00;97681.64;1694328;81;28266;-87
2022/08/21 01:14:42;;;;;;;8.73;7.40;;;;;;;21.01;100.00;97673.92;1692658;81;28130;-88
2022/08/21 01:17:17;;;;;;;9.18;6.50;;;;;;;20.96;100.00;97668.34;1634361;84;28082;-87
2022/08/21 01:19:43;;;;;;;12.47;7.55;;;;;;;20.95;100.00;97665.91;1658553;83;28109;-86
2022/08/21 01:22:09;;;;;;;10.20;8.35;;;;;;;21.00;100.00;97664.81;1669718;83;28041;-86
2022/08/21 01:24:36;;;;;;;11.78;8.58;;;;;;;20.98;100.00;97662.34;1656733;84;28194;-85
2022/08/21 01:27:02;;;;;;;14.07;7.53;;;;;;;20.98;100.00;97662.84;1694359;81;28185;-85
2022/08/21 01:29:41;;;;;;;11.40;7.60;;;;;;;20.97;100.00;97657.20;1695567;81;28335;-85
2022/08/21 01:32:10;;;;;;;15.43;9.48;;;;;;;21.00;100.00;97654.97;1651903;83;28014;-85
2022/08/21 01:34:40;;;;;;;10.03;7.45;;;;;;;21.04;100.00;97648.28;1685518;81;28171;-85
2022/08/21 01:37:09;;;;;;;10.53;7.78;;;;;;;21.06;100.00;97651.55;1711977;81;28194;-85
2022/08/21 01:39:36;;;;;;;12.82;8.03;;;;;;;21.05;100.00;97651.77;1697286;82;28076;-85
2022/08/21 01:42:02;;;;;;;11.57;7.75;;;;;;;20.98;100.00;97655.69;1706344;81;28133;-85
2022/08/21 01:44:28;;;;;;;10.88;8.18;;;;;;;20.95;100.00;97647.28;1698893;82;28225;-85
2022/08/21 01:46:55;;;;;;;12.78;8.53;;;;;;;20.99;100.00;97645.37;1691289;82;28108;-86
2022/08/21 01:49:22;;;;;;;12.10;8.38;;;;;;;21.05;100.00;97653.92;1706181;81;28262;-86
2022/08/21 01:51:50;;;;;;;11.25;8.23;;;;;;;21.08;100.00;97645.54;1693338;82;28007;-86
2022/08/21 01:54:17;;;;;;;11.93;7.35;;;;;;;21.12;100.00;97635.32;1675882;82;28120;-86
2022/08/21 01:56:49;;;;;;;11.30;8.48;;;;;;;21.08;100.00;97634.89;1698481;81;28169;-87
2022/08/21 01:59:16;;;;;;;12.23;8.40;;;;;;;21.09;100.00;97626.41;1700150;81;28161;-85
2022/08/21 02:01:42;;;;;;;9.90;7.67;;;;;;;21.08;100.00;97622.92;1701789;81;28056;-87
2022/08/21 02:04:10;;;;;;;11.63;8.23;;;;;;;21.05;100.00;97613.19;1688629;82;28018;-86
2022/08/21 02:06:38;;;;;;;12.25;8.38;;;;;;;21.00;100.00;97611.61;1706527;82;28155;-86
2022/08/21 02:09:07;;;;;;;13.30;9.78;;;;;;;20.96;100.00;97604.50;1700285;81;28147;-86
2022/08/21 02:11:35;;;;;;;12.50;9.10;;;;;;;20.98;100.00;97602.48;1688712;82;28064;-86
2022/08/21 02:14:03;;;;;;;12.80;7.45;;;;;;;21.04;100.00;97606.21;1683511;82;28150;-87
2022/08/21 02:16:29;;;;;;;10.38;7.67;;;;;;;21.09;100.00;97607.28;1689236;82;28088;-87
2022/08/21 02:18:57;;;;;;;12.78;8.20;;;;;;;21.14;100.00;97612.02;1704371;82;28092;-86
2022/08/21 02:21:25;;;;;;;10.55;8.30;;;;;;;21.14;100.00;97609.36;1690340;82;28058;-86
2022/08/21 02:23:51;;;;;;;12.25;8.18;;;;;;;21.13;100.00;97601.88;1688994;82;28120;-86
2022/08/21 02:26:17;;;;;;;13.10;8.45;;;;;;;21.16;100.00;97603.38;1689355;82;28215;-86
2022/08/21 02:28:44;;;;;;;12.60;7.95;;;;;;;21.14;100.00;97604.03;1701085;82;28231;-87
2022/08/21 02:31:11;;;;;;;11.97;8.53;;;;;;;21.14;100.00;97602.70;1707491;81;28132;-87
2022/08/21 02:33:37;;;;;;;15.32;8.88;;;;;;;21.14;100.00;97608.88;1691142;82;28015;-87
2022/08/21 02:36:05;;;;;;;15.60;9.18;;;;;;;21.19;100.00;97614.95;1688666;81;27987;-89
2022/08/21 02:38:34;;;;;;;13.45;8.75;;;;;;;21.22;100.00;97616.70;1703540;81;28201;-89
2022/08/21 02:41:00;;;;;;;11.22;8.55;;;;;;;21.24;100.00;97615.19;1656710;84;28203;-90
2022/08/21 02:43:30;;;;;;;11.30;8.45;;;;;;;21.21;100.00;97614.26;1658334;84;28152;-89
2022/08/21 02:45:57;;;;;;;13.75;8.03;;;;;;;21.15;100.00;97609.70;1675074;83;28013;-89
2022/08/21 02:48:27;;;;;;;12.30;8.80;;;;;;;21.10;100.00;97612.92;1713422;81;28147;-89
2022/08/21 02:50:59;;;;;;;12.00;8.63;;;;;;;21.09;100.00;97605.95;1709820;81;28089;-90
2022/08/21 02:53:27;;;;;;;14.25;8.75;;;;;;;21.11;100.00;97604.44;1686024;82;28124;-89
2022/08/21 02:55:59;;;;;;;11.63;7.85;;;;;;;21.09;100.00;97600.63;1697768;81;28160;-88
2022/08/21 02:58:27;;;;;;;12.58;8.00;;;;;;;21.08;100.00;97610.95;1708325;81;28266;-90
2022/08/21 03:00:58;;;;;;;11.03;7.97;;;;;;;21.07;100.00;97613.80;1692224;82;28154;-88
2022/08/21 03:03:26;;;;;;;15.70;9.25;;;;;;;21.03;100.00;97617.36;1692954;81;28109;-89
2022/08/21 03:05:55;;;;;;;9.85;7.65;;;;;;;20.99;100.00;97622.76;1681234;82;28066;-89
2022/08/21 03:08:23;;;;;;;10.23;8.25;;;;;;;20.92;100.00;97623.20;1714164;81;28111;-89
2022/08/21 03:10:56;;;;;;;10.32;7.65;;;;;;;20.85;100.00;97624.47;1700901;81;28179;-88
2022/08/21 03:13:22;;;;;;;10.78;7.20;;;;;;;20.78;100.00;97628.89;1675945;81;28158;-88
2022/08/21 03:15:49;;;;;;;12.18;6.65;;;;;;;20.73;100.00;97622.53;1650468;83;28146;-88
2022/08/21 03:18:16;;;;;;;10.45;7.25;;;;;;;20.67;100.00;97627.28;1689888;81;28111;-88
2022/08/21 03:20:44;;;;;;;8.03;5.90;;;;;;;20.62;100.00;97633.67;1703741;82;28062;-88
2022/08/21 03:23:11;;;;;;;9.50;5.70;;;;;;;20.59;100.00;97620.75;1706890;81;28080;-86
2022/08/21 03:25:39;;;;;;;9.50;6.20;;;;;;;20.51;100.00;97622.22;1709535;81;28067;-86
2022/08/21 03:28:13;;;;;;;9.45;5.83;;;;;;;20.41;100.00;97623.83;1695537;81;28062;-86
2022/08/21 03:30:46;;;;;;;10.23;5.60;;;;;;;20.33;100.00;97619.48;1686686;82;28039;-86
2022/08/21 03:33:10;;;;;;;7.33;5.62;;;;;;;20.26;100.00;97613.23;1714461;81;28124;-89
2022/08/21 03:35:36;;;;;;;7.90;5.90;;;;;;;20.18;100.00;97604.56;1699768;82;28262;-88
2022/08/21 03:38:02;;;;;;;7.45;5.83;;;;;;;20.15;100.00;97608.91;1699004;81;28053;-89
2022/08/21 03:40:29;;;;;;;10.28;6.28;;;;;;;20.14;100.00;97616.05;1710650;81;28161;-89
2022/08/21 03:42:55;;;;;;;8.53;5.97;;;;;;;20.31;100.00;97601.56;1692729;82;28078;-89
2022/08/21 03:45:22;;;;;;;7.60;5.83;;;;;;;20.41;100.00;97603.39;1690193;82;28150;-88
2022/08/21 03:48:00;;;;;;;8.78;5.80;;;;;;;20.51;100.00;97604.41;1700411;82;28082;-88
2022/08/21 03:50:30;;;;;;;10.63;5.90;;;;;;;20.65;100.00;97621.32;1703219;81;28165;-88
2022/08/21 03:52:56;;;;;;;9.15;6.10;;;;;;;20.73;100.00;97623.33;1701760;81;28167;-87
2022/08/21 03:55:23;;;;;;;8.00;5.60;;;;;;;20.82;100.00;97614.23;1685917;82;28239;-86
2022/08/21 03:57:49;;;;;;;6.83;5.55;;;;;;;20.85;100.00;97609.84;1657509;83;28186;-86
2022/08/21 04:00:16;;;;;;;9.63;5.65;;;;;;;20.73;100.00;97604.72;1690896;82;28205;-88
2022/08/21 04:02:43;;;;;;;8.50;6.25;;;;;;;20.58;100.00;97610.62;1710552;81;28163;-88
2022/08/21 04:05:14;;;;;;;8.25;6.50;;;;;;;20.48;100.00;97607.95;1713928;81;28034;-89
2022/08/21 04:07:40;;;;;;;7.93;6.67;;;;;;;20.59;100.00;97614.09;1700418;81;39679;-88
2022/08/21 04:10:07;;;;;;;8.95;7.10;;;;;;;20.69;100.00;97627.39;1703497;81;28056;-89
2022/08/21 04:12:34;;;;;;;8.28;6.87;;;;;;;20.78;100.00;97630.77;1695246;81;28012;-87
2022/08/21 04:15:01;;;;;;;9.30;6.58;;;;;;;20.82;100.00;97632.02;1695910;81;28212;-86
2022/08/21 04:17:28;;;;;;;9.35;7.10;;;;;;;20.85;100.00;97635.11;1715034;81;28135;-88
2022/08/21 04:19:54;;;;;;;7.55;6.25;;;;;;;20.87;100.00;97641.07;1686202;82;28153;-89
2022/08/21 04:22:20;;;;;;;8.83;6.70;;;;;;;20.91;100.00;97634.02;1689764;82;28111;-87
2022/08/21 04:24:47;;;;;;;6.95;6.25;;;;;;;20.93;100.00;97638.16;1684299;81;28132;-89
2022/08/21 04:27:13;;;;;;;8.33;6.65;;;;;;;20.94;100.00;97633.66;1705323;81;28246;-88
2022/08/21 04:29:39;;;;;;;9.78;7.80;;;;;;;20.94;100.00;97636.31;1711169;81;28240;-86
2022/08/21 04:32:06;;;;;;;10.70;7.35;;;;;;;20.93;100.00;97634.16;1697856;81;28257;-88
2022/08/21 04:34:33;;;;;;;9.08;6.70;;;;;;;20.92;100.00;97633.84;1636244;85;28138;-88
2022/08/21 04:37:00;;;;;;;9.05;6.17;;;;;;;20.92;100.00;97639.66;1713576;81;28309;-88
2022/08/21 04:39:32;;;;;;;6.30;5.47;;;;;;;20.84;100.00;97641.94;1685518;81;28170;-89
2022/08/21 04:41:58;;;;;;;6.72;5.05;;;;;;;20.81;100.00;97641.00;1707972;81;28112;-89
2022/08/21 04:44:24;;;;;;;4.08;3.47;;;;;;;20.72;100.00;97641.66;1701689;81;28092;-89
2022/08/21 04:46:50;;;;;;;4.55;3.30;;;;;;;20.68;100.00;97645.69;1718562;82;28212;-87
2022/08/21 04:49:17;;;;;;;5.35;3.72;;;;;;;20.69;100.00;97652.66;1683350;82;28180;-87
2022/08/21 04:51:44;;;;;;;3.90;3.20;;;;;;;20.71;100.00;97652.47;1694030;82;28251;-88
2022/08/21 04:54:19;;;;;;;3.87;2.33;;;;;;;20.73;100.00;97653.91;1680072;82;28156;-88
2022/08/21 04:56:49;;;;;;;2.83;2.45;;;;;;;20.67;100.00;97651.22;1695067;82;28100;-89
2022/08/21 04:59:19;;;;;;;2.95;2.25;;;;;;;20.64;100.00;97655.56;1698004;81;28145;-86
2022/08/21 05:01:46;;;;;;;2.80;2.02;;;;;;;20.67;100.00;97657.86;1696650;81;28236;-88
2022/08/21 05:04:16;;;;;;;4.05;2.45;;;;;;;20.65;100.00;97666.02;1707701;81;28066;-88
2022/08/21 05:06:46;;;;;;;3.50;2.52;;;;;;;20.63;100.00;97665.38;1705643;81;28078;-88
2022/08/21 05:09:16;;;;;;;4.15;2.17;;;;;;;20.58;100.00;97670.44;1709007;81;28102;-88
2022/08/21 05:11:42;;;;;;;3.27;2.60;;;;;;;20.57;100.00;97674.60;1703381;81;28111;-88
2022/08/21 05:14:11;;;;;;;4.95;2.80;;;;;;;20.54;100.00;97671.83;1701583;81;28256;-86
2022/08/21 05:16:38;;;;;;;2.60;2.20;;;;;;;20.56;100.00;97667.66;1714641;82;28223;-86
2022/08/21 05:19:06;;;;;;;2.25;1.75;;;;;;;20.59;100.00;97672.59;1714209;81;28099;-86
2022/08/21 05:21:35;;;;;;;1.70;1.15;;;;;;;20.59;100.00;97671.27;1714127;81;28105;-89
2022/08/21 05:24:00;;;;;;;1.20;1.10;;;;;;;20.58;100.00;97667.78;1707590;82;28123;-87
2022/08/21 05:26:27;;;;;;;1.27;0.88;;;;;;;20.50;100.00;97663.92;1702221;82;28116;-87
2022/08/21 05:28:53;;;;;;;2.05;0.93;;;;;;;20.44;100.00;97666.83;1711155;81;28106;-88
2022/08/21 05:31:19;;;;;;;1.32;0.72;;;;;;;20.34;100.00;97667.64;1708831;81;41735;-88
2022/08/21 05:33:45;;;;;;;1.25;1.00;;;;;;;20.31;100.00;97673.78;1697983;81;42064;-88
2022/08/21 05:36:11;;;;;;;2.40;0.70;;;;;;;20.30;100.00;97671.63;1705668;81;28105;-89
2022/08/21 05:38:37;;;;;;;1.15;1.05;;;;;;;20.30;100.00;97675.61;1707949;81;28128;-88
2022/08/21 05:41:04;;;;;;;2.90;1.15;;;;;;;20.30;100.00;97676.11;1704040;81;28081;-88
2022/08/21 05:43:32;;;;;;;0.95;0.80;;;;;;;20.31;100.00;97679.95;1687763;82;28243;-87
2022/08/21 05:45:58;;;;;;;1.60;0.90;;;;;;;20.38;100.00;97671.56;1709323;81;28112;-87
2022/08/21 05:48:32;;;;;;;1.45;0.90;;;;;;;20.42;100.00;97668.84;1697721;81;28099;-87
2022/08/21 05:50:56;;;;;;;2.30;0.85;;;;;;;20.46;100.00;97664.78;1700601;81;41941;-87
2022/08/21 05:53:24;;;;;;;1.77;0.85;;;;;;;20.51;100.00;97675.38;1713501;81;28224;-89
2022/08/21 05:55:52;;;;;;;2.55;1.27;;;;;;;20.48;100.00;97681.88;1690362;83;28301;-86
2022/08/21 05:58:22;;;;;;;2.27;1.22;;;;;;;20.46;100.00;97687.38;1718959;81;28254;-86
2022/08/21 06:00:51;;;;;;;2.67;0.93;;;;;;;20.47;100.00;97697.52;1684047;82;28176;-88
2022/08/21 06:03:20;;;;;;;1.80;1.22;;;;;;;20.49;100.00;97700.81;1690674;81;28085;-87
2022/08/21 06:05:47;;;;;;;3.70;1.02;;;;;;;20.51;100.00;97704.09;1702963;81;28261;-87
2022/08/21 06:08:21;;;;;;;2.45;0.78;;;;;;;20.50;100.00;97704.30;1717645;81;28139;-88
2022/08/21 06:10:49;;;;;;;1.32;1.00;;;;;;;20.44;100.00;97708.03;1698214;82;28191;-86
2022/08/21 06:13:17;;;;;;;2.98;0.85;;;;;;;20.45;100.00;97709.68;1702466;82;28043;-85
2022/08/21 06:15:44;;;;;;;1.47;0.82;;;;;;;20.44;100.00;97713.34;1700523;81;28184;-86
2022/08/21 06:18:11;;;;;;;1.00;0.90;;;;;;;20.43;100.00;97715.67;1710818;82;28082;-86
2022/08/21 06:20:38;;;;;;;0.80;0.55;;;;;;;20.44;100.00;97719.16;1703333;81;28117;-88
2022/08/21 06:23:06;;;;;;;1.22;0.55;;;;;;;20.42;100.00;97719.34;1707896;81;28256;-87
2022/08/21 06:25:33;;;;;;;1.27;0.60;;;;;;;20.39;100.00;97713.08;1717801;81;28734;-86
2022/08/21 06:28:04;;;;;;;0.88;0.50;;;;;;;20.38;100.00;97718.07;1714981;81;35015;-86
2022/08/21 06:30:30;;;;;;;1.00;0.40;;;;;;;20.34;100.00;97719.46;1694527;82;28126;-87
2022/08/21 06:32:56;;;;;;;1.15;0.40;;;;;;;20.30;100.00;97719.96;1712910;81;28106;-87
2022/08/21 06:35:24;;;;;;;0.40;0.40;;;;;;;20.26;100.00;97718.69;1718409;81;28014;-87
2022/08/21 06:37:51;;;;;;;0.75;0.40;;;;;;;20.24;100.00;97727.34;1693644;81;28106;-87
2022/08/21 06:40:17;;;;;;;1.95;0.60;;;;;;;20.21;100.00;97719.25;1709537;82;28083;-87
2022/08/21 06:42:44;;;;;;;0.60;0.50;;;;;;;20.18;100.00;97718.81;1694797;82;28111;-87
2022/08/21 06:45:11;;;;;;;1.02;0.85;;;;;;;20.14;100.00;97726.80;1691579;82;28210;-87
2022/08/21 06:47:43;;;;;;;2.15;0.88;;;;;;;20.12;100.00;97726.19;1690672;81;28228;-86
2022/08/21 06:50:12;;;;;;;1.87;1.10;;;;;;;20.11;100.00;97727.19;1699570;82;28100;-86
2022/08/21 06:52:38;;;;;;;1.57;1.30;;;;;;;20.05;100.00;97724.27;1703108;82;28250;-86
2022/08/21 06:55:07;;;;;;;2.00;1.40;;;;;;;19.99;100.00;97730.81;1715116;81;28067;-87
2022/08/21 06:57:33;;;;;;;1.87;0.98;;;;;;;19.89;100.00;97728.94;1690885;82;28127;-86
2022/08/21 06:59:59;;;;;;;3.15;0.60;;;;;;;19.81;100.00;97726.34;1704934;81;28229;-86
2022/08/21 07:02:26;;;;;;;2.05;0.60;;;;;;;19.77;100.00;97723.75;1691923;82;28196;-86
2022/08/21 07:04:52;;;;;;;1.65;1.50;;;;;;;19.73;100.00;97725.95;1696736;82;28026;-86
2022/08/21 07:07:18;;;;;;;3.05;1.82;;;;;;;19.72;100.00;97723.47;1720122;81;28174;-87
2022/08/21 07:09:44;;;;;;;3.08;1.70;;;;;;;19.72;100.00;97724.80;1704884;81;28218;-86
2022/08/21 07:12:10;;;;;;;3.00;1.80;;;;;;;19.71;100.00;97729.78;1712746;81;42445;-86
2022/08/21 07:14:37;;;;;;;4.50;1.60;;;;;;;19.73;100.00;97731.77;1702258;81;28110;-87
2022/08/21 07:17:03;;;;;;;2.98;1.90;;;;;;;19.75;100.00;97733.21;1713332;81;28143;-88
2022/08/21 07:19:29;;;;;;;1.98;1.75;;;;;;;19.77;100.00;97733.04;1709629;81;28091;-88
2022/08/21 07:21:59;;;;;;;2.80;1.90;;;;;;;19.80;100.00;97738.80;1698057;82;28124;-86
2022/08/21 07:24:29;;;;;;;2.65;1.80;;;;;;;19.86;100.00;97740.73;1703347;82;28204;-86
2022/08/21 07:26:55;;;;;;;3.27;2.20;;;;;;;19.91;100.00;97748.17;1713391;81;28127;-86
2022/08/21 07:29:21;;;;;;;2.70;2.37;;;;;;;19.97;100.00;97750.08;1692616;82;28098;-88
2022/08/21 07:31:47;;;;;;;2.95;2.12;;;;;;;19.99;100.00;97744.09;1677576;83;28279;-86
2022/08/21 07:34:14;;;;;;;2.37;2.00;;;;;;;20.05;100.00;97755.31;1692791;81;28038;-87
2022/08/21 07:36:42;;;;;;;2.22;1.80;;;;;;;20.09;100.00;97756.59;1688779;82;28174;-87
2022/08/21 07:39:09;;;;;;;3.25;1.30;;;;;;;20.15;100.00;97759.84;1716049;81;28099;-87
2022/08/21 07:41:35;;;;;;;1.00;0.90;;;;;;;20.20;100.00;97762.77;1715345;81;28172;-87
2022/08/21 07:44:04;;;;;;;1.40;1.00;;;;;;;20.24;100.00;97762.72;1713621;81;28194;-89
2022/08/21 07:46:30;;;;;;;1.12;0.65;;;;;;;20.22;100.00;97767.91;1711705;81;28226;-88
2022/08/21 07:48:58;;;;;;;2.10;1.32;;;;;;;20.19;100.00;97767.76;1675411;82;28241;-87
2022/08/21 07:51:28;;;;;;;3.00;1.10;;;;;;;20.15;100.00;97768.31;1687007;82;28104;-88
2022/08/21 07:53:59;;;;;;;3.58;0.93;;;;;;;20.14;100.00;97760.84;1714491;82;28094;-87
2022/08/21 07:56:30;;;;;;;2.02;1.60;;;;;;;20.13;100.00;97764.50;1645013;84;28062;-88
2022/08/21 07:58:57;;;;;;;2.42;0.90;;;;;;;20.14;100.00;97770.14;1674932;84;28187;-89
2022/08/21 08:01:27;;;;;;;1.37;1.00;;;;;;;20.18;100.00;97774.11;1660295;83;28132;-88
2022/08/21 08:03:52;;;;;;;1.75;1.30;;;;;;;20.19;100.00;97770.91;1667086;84;28091;-89
2022/08/21 08:06:19;;;;;;;2.87;1.40;;;;;;;20.19;100.00;97777.56;1662407;84;42248;-89
2022/08/21 08:08:45;;;;;;;3.77;1.57;;;;;;;20.24;100.00;97774.67;1659627;84;28175;-89
2022/08/21 08:11:15;;;;;;;2.15;1.85;;;;;;;20.26;100.00;97778.48;1656369;83;28026;-89
2022/08/21 08:13:43;;;;;;;3.80;1.82;;;;;;;20.23;100.00;97772.22;1656995;84;28102;-86
2022/08/21 08:16:10;;;;;;;3.40;2.67;;;;;;;20.17;100.00;97770.30;1673669;81;28091;-88
2022/08/21 08:18:36;;;;;;;5.50;2.92;;;;;;;20.17;100.00;97768.97;1699039;81;28156;-86
2022/08/21 08:21:03;;;;;;;6.53;3.25;;;;;;;20.13;100.00;97769.81;1706205;81;28096;-87
2022/08/21 08:23:32;;;;;;;4.10;3.22;;;;;;;20.09;100.00;97769.05;1692894;81;28218;-86
2022/08/21 08:26:08;;;;;;;4.42;3.25;;;;;;;20.01;100.00;97769.97;1686762;82;28137;-87
2022/08/21 08:28:34;;;;;;;4.53;3.60;;;;;;;19.96;100.00;97773.19;1710977;81;28042;-88
2022/08/21 08:31:01;;;;;;;5.17;3.05;;;;;;;19.90;100.00;97769.92;1703758;81;28010;-85
2022/08/21 08:33:27;;;;;;;2.30;2.10;;;;;;;19.91;100.00;97773.41;1687277;82;28088;-85
2022/08/21 08:35:54;;;;;;;2.27;1.80;;;;;;;19.87;100.00;97769.44;1705679;81;28131;-85
2022/08/21 08:38:22;;;;;;;2.20;1.77;;;;;;;19.80;100.00;97760.58;1704218;81;28112;-87
2022/08/21 08:41:16;;;;;;;2.20;1.87;;;;;;;19.76;100.00;97768.55;1700122;81;28121;-87
2022/08/21 08:43:46;;;;;;;1.87;1.62;;;;;;;19.73;100.00;97767.61;1688726;83;28280;-90
2022/08/21 08:46:15;;;;;;;1.62;1.52;;;;;;;19.75;100.00;97769.55;1710574;81;28150;-87
2022/08/21 08:48:58;;;;;;;1.67;1.57;;;;;;;19.75;100.00;97768.23;1704414;82;28143;-87
2022/08/21 08:51:31;;;;;;;1.60;1.50;;;;;;;19.77;100.00;97766.23;1686882;81;28125;-86
2022/08/21 08:54:01;;;;;;;1.45;1.25;;;;;;;19.74;100.00;97767.94;1692242;81;28043;-86
2022/08/21 08:56:30;;;;;;;1.95;1.30;;;;;;;19.73;100.00;97768.94;1702124;82;28258;-88
2022/08/21 08:59:00;;;;;;;1.10;1.00;;;;;;;19.67;100.00;97770.48;1692182;81;28129;-89
2022/08/21 09:01:33;;;;;;;0.90;0.90;;;;;;;19.63;100.00;97775.34;1707189;81;28215;-87
2022/08/21 09:03:59;;;;;;;0.85;0.85;;;;;;;19.63;100.00;97775.83;1707192;81;28072;-89
2022/08/21 09:06:35;;;;;;;0.70;0.70;;;;;;;19.63;100.00;97777.16;1701400;82;28019;-86
2022/08/21 09:09:33;;;;;;;0.78;0.78;;;;;;;19.65;100.00;97771.15;1719737;81;28232;-87
2022/08/21 09:12:20;;;;;;;0.78;0.78;;;;;;;19.69;100.00;97772.96;1675437;83;28202;-86
2022/08/21 09:15:02;;;;;;;0.50;0.50;;;;;;;19.73;100.00;97772.41;1679940;81;28164;-86
2022/08/21 09:17:38;;;;;;;0.40;0.40;;;;;;;19.78;100.00;97777.18;1700717;81;28069;-86
2022/08/21 09:20:20;;;;;;;0.40;0.40;;;;;;;19.78;100.00;97779.33;1669584;83;28115;-86
2022/08/21 09:23:09;;;;;;;2.52;0.55;;;;;;;19.69;100.00;97782.25;1676150;83;28111;-88
2022/08/21 09:25:57;;;;;;;0.47;0.35;;;;;;;19.66;100.00;97786.08;1650250;84;28070;-89
2022/08/21 09:28:24;;;;;;;0.40;0.40;;;;;;;19.66;100.00;97779.94;1659893;83;28216;-87
2022/08/21 09:30:52;;;;;;;0.37;0.37;;;;;;;19.72;100.00;97788.02;1665125;82;28110;-87
2022/08/21 09:33:18;;;;;;;0.45;0.42;;;;;;;19.72;100.00;97788.52;1632593;84;28514;-89
2022/08/21 09:35:54;;;;;;;2.40;0.30;;;;;;;19.70;100.00;97793.17;1656738;83;28145;-88
2022/08/21 09:38:32;;;;;;;1.37;0.62;;;;;;;19.73;100.00;97795.48;1689383;82;28088;-89
2022/08/21 09:41:03;;;;;;;0.30;0.30;;;;;;;19.73;100.00;97788.84;1691473;82;28476;-90
2022/08/21 09:43:30;;;;;;;0.20;0.20;;;;;;;19.70;100.00;97790.02;1700119;81;28097;-90
2022/08/21 09:46:09;;;;;;;0.42;0.42;;;;;;;19.71;100.00;97793.50;1701831;81;28069;-88
2022/08/21 09:48:46;;;;;;;0.40;0.40;;;;;;;19.68;100.00;97792.05;1644517;83;28189;-88
2022/08/21 09:51:25;;;;;;;0.40;0.35;;;;;;;19.68;100.00;97797.86;1686063;82;28133;-89
2022/08/21 09:54:12;;;;;;;0.50;0.50;;;;;;;19.66;100.00;97792.72;1686682;81;28147;-90
2022/08/21 09:59:32;;;;;;;0.93;0.60;;;;;;;19.70;100.00;97786.03;1698010;82;28097;-87
2022/08/21 10:02:01;;;;;;;0.80;0.80;;;;;;;19.72;100.00;97789.34;1713281;81;28101;-89
2022/08/21 10:04:36;;;;;;;0.82;0.60;;;;;;;19.70;100.00;97793.17;1696523;81;28100;-88
2022/08/21 10:07:08;;;;;;;0.60;0.60;;;;;;;19.63;100.00;97792.59;1677126;81;28151;-89
2022/08/21 10:09:34;;;;;;;1.85;0.90;;;;;;;19.62;100.00;97792.27;1706004;81;28129;-90
2022/08/21 10:12:13;;;;;;;0.70;0.70;;;;;;;19.66;100.00;97787.41;1698462;81;28073;-89
2022/08/21 10:14:46;;;;;;;1.02;0.65;;;;;;;19.71;100.00;97790.34;1702432;82;28155;-89
2022/08/21 10:17:19;;;;;;;0.65;0.60;;;;;;;19.79;100.00;97790.78;1694659;82;28505;-86
2022/08/21 10:20:06;;;;;;;1.12;0.82;;;;;;;19.81;100.00;97790.08;1696150;81;28122;-86
2022/08/21 10:23:03;;;;;;;0.88;0.55;;;;;;;19.80;100.00;97788.45;1709018;81;28081;-89
2022/08/21 10:25:45;;;;;;;1.25;0.45;;;;;;;19.80;100.00;97794.56;1711690;81;28090;-87
2022/08/21 10:28:15;;;;;;;0.60;0.60;;;;;;;19.82;100.00;97791.73;1693011;81;28254;-87
2022/08/21 10:31:09;;;;;;;0.70;0.70;;;;;;;19.84;100.00;97792.39;1683158;81;28061;-86
2022/08/21 10:33:56;;;;;;;0.98;0.50;;;;;;;19.85;100.00;97793.55;1683131;81;28132;-89
2022/08/21 10:36:28;;;;;;;0.53;0.53;;;;;;;19.84;100.00;97786.58;1712227;81;28063;-87
2022/08/21 10:39:06;;;;;;;1.20;0.70;;;;;;;19.89;100.00;97797.98;1696063;82;28489;-90
2022/08/21 10:41:56;;;;;;;1.50;0.60;;;;;;;19.91;100.00;97799.97;1672008;81;28254;-86
2022/08/21 10:44:32;;;;;;;0.93;0.68;;;;;;;19.99;100.00;97802.52;1677908;82;28103;-87
2022/08/21 10:47:08;;;;;;;0.50;0.50;;;;;;;20.03;100.00;97798.48;1700662;81;28072;-90
2022/08/21 10:50:00;;;;;;;0.95;0.35;;;;;;;20.10;100.00;97793.28;1672063;83;28204;-88
2022/08/21 10:52:53;;;;;;;0.50;0.50;;;;;;;20.17;100.00;97795.53;1705077;82;28234;-90
2022/08/21 10:55:24;;;;;;;0.85;0.40;;;;;;;20.24;100.00;97801.24;1712267;82;28112;-87
2022/08/21 10:57:59;;;;;;;0.50;0.50;;;;;;;20.28;100.00;97803.88;1711126;82;28070;-90
2022/08/21 11:00:36;;;;;;;1.75;0.75;;;;;;;20.33;100.00;97807.34;1711223;81;28151;-90
2022/08/21 11:03:10;;;;;;;0.23;0.20;;;;;;;20.33;100.00;97809.50;1699283;82;28207;-89
2022/08/21 11:05:47;;;;;;;0.20;0.20;;;;;;;20.25;100.00;97804.73;1685642;82;28187;-87
2022/08/21 11:08:14;;;;;;;0.20;0.20;;;;;;;20.11;100.00;97806.39;1702174;81;28040;-89
2022/08/21 11:10:44;;;;;;;0.40;0.37;;;;;;;19.99;100.00;97806.51;1689429;81;28115;-89
2022/08/21 11:13:38;;;;;;;0.33;0.30;;;;;;;19.87;100.00;97807.95;1684659;82;28223;-87
2022/08/21 11:16:22;;;;;;;0.30;0.30;;;;;;;19.76;100.00;97807.88;1701744;82;28073;-89
2022/08/21 11:19:04;;;;;;;0.35;0.35;;;;;;;19.70;100.00;97807.27;1654140;85;28146;-89
2022/08/21 11:21:43;;;;;;;0.50;0.50;;;;;;;19.61;100.00;97811.84;1651154;83;28122;-89
2022/08/21 11:24:34;;;;;;;0.55;0.50;;;;;;;19.51;100.00;97817.08;1657297;85;28067;-88
2022/08/21 11:27:06;;;;;;;1.17;0.60;;;;;;;19.42;100.00;97816.27;1692357;82;32633;-89
2022/08/21 11:29:38;;;;;;;1.17;0.70;;;;;;;19.34;100.00;97813.69;1682641;83;28014;-88
2022/08/21 11:32:32;;;;;;;0.80;0.68;;;;;;;19.29;100.00;97817.88;1685190;82;28134;-89
2022/08/21 11:35:18;;;;;;;3.80;0.80;;;;;;;19.19;100.00;97823.42;1694449;81;28126;-89
2022/08/21 11:37:50;;;;;;;3.77;0.65;;;;;;;19.14;100.00;97819.14;1690256;82;28090;-88
2022/08/21 11:40:34;;;;;;;0.82;0.72;;;;;;;19.10;100.00;97821.80;1720927;81;28246;-89